Time;durP1;ratioP1;P1;durP2;ratioP2;P2;SDS_P1;SDS_P2;PMS_P1;PMS_P2;Temp;Humidity;BMP_temperature;BMP_pressure;BME280_temperature;BME280_humidity;BME280_pressure;Samples;Min_cycle;Max_cycle;Signal;HPM_P1;HPM_P2
2021/05/10 00:01:03;;;;;;;;;;;18.40;62.20;;;;;;5051470;28;1122;-63
2021/05/10 00:03:29;;;;;;;;;;;18.40;62.20;;;;;;5051330;28;1269;-64
2021/05/10 00:05:54;;;;;;;;;;;18.40;62.20;;;;;;5051139;28;1123;-64
2021/05/10 00:08:22;;;;;;;;;;;18.50;62.30;;;;;;5051337;28;1955;-63
2021/05/10 00:10:47;;;;;;;;;;;18.50;62.30;;;;;;5033573;28;1084;-63
2021/05/10 00:13:15;;;;;;;;;;;18.40;62.20;;;;;;5033373;28;1246;-64
2021/05/10 00:15:41;;;;;;;;;;;18.50;62.30;;;;;;5050812;28;1237;-64
2021/05/10 00:18:09;;;;;;;;;;;18.50;62.40;;;;;;5051327;28;1068;-64
2021/05/10 00:20:36;;;;;;;;;;;18.50;62.30;;;;;;5047839;28;1177;-64
2021/05/10 00:23:01;;;;;;;;;;;18.40;62.30;;;;;;5041128;28;1059;-64
2021/05/10 00:25:27;;;;;;;;;;;18.50;62.30;;;;;;5050473;28;1387;-64
2021/05/10 00:27:52;;;;;;;;;;;18.40;62.30;;;;;;5053093;28;1949;-64
2021/05/10 00:30:18;;;;;;;;;;;18.40;62.30;;;;;;5055243;28;1235;-64
2021/05/10 00:32:43;;;;;;;;;;;18.50;62.40;;;;;;5037197;28;1871;-63
2021/05/10 00:35:09;;;;;;;;;;;18.40;62.30;;;;;;5054455;28;1257;-64
2021/05/10 00:37:34;;;;;;;;;;;18.40;62.30;;;;;;5055058;28;1119;-64
2021/05/10 00:40:00;;;;;;;;;;;18.40;62.30;;;;;;5054386;28;1122;-64
2021/05/10 00:42:25;;;;;;;;;;;18.40;62.30;;;;;;5065262;28;1083;-65
2021/05/10 00:44:50;;;;;;;;;;;18.40;62.30;;;;;;5074494;28;1263;-63
2021/05/10 00:47:16;;;;;;;;;;;18.40;62.30;;;;;;5074356;28;1062;-64
2021/05/10 00:49:41;;;;;;;;;;;18.40;62.30;;;;;;5074392;28;1952;-64
2021/05/10 00:52:07;;;;;;;;;;;18.40;62.30;;;;;;5074686;28;1070;-63
2021/05/10 00:54:32;;;;;;;;;;;18.40;62.30;;;;;;5074255;28;1272;-64
2021/05/10 00:56:58;;;;;;;;;;;18.40;62.30;;;;;;5056222;28;1063;-63
2021/05/10 00:59:23;;;;;;;;;;;18.40;63.00;;;;;;5056444;28;1086;-64
2021/05/10 01:01:49;;;;;;;;;;;18.40;62.30;;;;;;5074415;28;1118;-64
2021/05/10 01:04:15;;;;;;;;;;;18.40;62.30;;;;;;5056498;28;1288;-63
2021/05/10 01:06:40;;;;;;;;;;;18.40;62.30;;;;;;5074107;28;1056;-64
2021/05/10 01:09:06;;;;;;;;;;;18.40;62.30;;;;;;5073809;28;1945;-64
2021/05/10 01:11:31;;;;;;;;;;;18.40;62.30;;;;;;5074192;28;1074;-64
2021/05/10 01:16:27;;;;;;;;;;;18.40;62.30;;;;;;5059832;28;1670;-68
2021/05/10 01:18:53;;;;;;;;;;;18.50;62.40;;;;;;5071793;28;1560;-69
2021/05/10 01:21:18;;;;;;;;;;;18.40;62.30;;;;;;5056469;28;1507;-68
2021/05/10 01:23:44;;;;;;;;;;;18.40;62.30;;;;;;5055983;28;1357;-69
2021/05/10 01:26:10;;;;;;;;;;;18.40;62.30;;;;;;5053917;28;1671;-68
2021/05/10 01:28:35;;;;;;;;;;;18.40;62.30;;;;;;5036080;28;1902;-68
2021/05/10 01:31:01;;;;;;;;;;;18.40;62.30;;;;;;5036061;28;1616;-68
2021/05/10 01:33:26;;;;;;;;;;;18.40;62.30;;;;;;5054072;28;1181;-69
2021/05/10 01:35:52;;;;;;;;;;;18.50;62.40;;;;;;5053664;28;1686;-68
2021/05/10 01:38:17;;;;;;;;;;;18.40;62.30;;;;;;5053733;28;1372;-68
2021/05/10 01:40:43;;;;;;;;;;;18.40;62.40;;;;;;5036059;28;1840;-69
2021/05/10 01:43:09;;;;;;;;;;;18.50;62.50;;;;;;5035818;28;1567;-68
2021/05/10 01:45:35;;;;;;;;;;;18.40;62.40;;;;;;5053369;28;1386;-68
2021/05/10 01:48:01;;;;;;;;;;;18.40;62.40;;;;;;5053677;28;1894;-68
2021/05/10 01:50:27;;;;;;;;;;;18.40;62.40;;;;;;5052403;28;1322;-68
2021/05/10 01:52:52;;;;;;;;;;;18.50;62.40;;;;;;5053539;28;1618;-68
2021/05/10 01:55:18;;;;;;;;;;;18.40;62.40;;;;;;5053288;28;1381;-68
2021/05/10 01:57:47;;;;;;;;;;;18.40;62.40;;;;;;5048605;28;1526;-68
2021/05/10 02:00:13;;;;;;;;;;;18.40;62.40;;;;;;5031757;28;1192;-69
2021/05/10 02:02:38;;;;;;;;;;;18.40;62.40;;;;;;5053882;28;1616;-68
2021/05/10 02:05:14;;;;;;;;;;;18.40;62.40;;;;;;5049764;28;1248;-69
2021/05/10 02:07:40;;;;;;;;;;;18.50;62.50;;;;;;5029913;28;1947;-70
2021/05/10 02:10:06;;;;;;;;;;;18.40;62.40;;;;;;5028067;28;1196;-69
2021/05/10 02:12:32;;;;;;;;;;;18.40;62.40;;;;;;5049068;28;1381;-68
2021/05/10 02:14:57;;;;;;;;;;;18.40;62.40;;;;;;5043637;28;1374;-68
2021/05/10 02:17:23;;;;;;;;;;;18.40;62.40;;;;;;5046531;28;1155;-69
2021/05/10 02:19:48;;;;;;;;;;;18.40;62.40;;;;;;5047596;28;1358;-68
2021/05/10 02:22:14;;;;;;;;;;;18.50;62.50;;;;;;5030106;28;1267;-70
2021/05/10 02:24:39;;;;;;;;;;;18.40;62.40;;;;;;5032277;28;1407;-70
2021/05/10 02:27:05;;;;;;;;;;;18.50;62.50;;;;;;5035219;28;1397;-69
2021/05/10 02:29:30;;;;;;;;;;;18.50;62.50;;;;;;5035980;28;1967;-69
2021/05/10 02:31:55;;;;;;;;;;;18.40;62.40;;;;;;5035959;28;1712;-69
2021/05/10 02:34:21;;;;;;;;;;;18.50;62.50;;;;;;5035944;28;1357;-70
2021/05/10 02:36:46;;;;;;;;;;;18.50;62.50;;;;;;5053370;28;1405;-69
2021/05/10 02:39:12;;;;;;;;;;;18.40;62.40;;;;;;5053598;28;1684;-69
2021/05/10 02:41:37;;;;;;;;;;;18.40;62.40;;;;;;5053800;28;1646;-70
2021/05/10 02:44:03;;;;;;;;;;;18.40;62.50;;;;;;5053518;28;1586;-68
2021/05/10 02:46:28;;;;;;;;;;;18.40;62.50;;;;;;5053224;28;1410;-68
2021/05/10 02:48:53;;;;;;;;;;;18.40;62.50;;;;;;5035598;28;1947;-68
2021/05/10 02:51:19;;;;;;;;;;;18.40;62.50;;;;;;5052993;28;1368;-68
2021/05/10 02:53:44;;;;;;;;;;;18.50;62.50;;;;;;5053515;28;1614;-68
2021/05/10 02:56:10;;;;;;;;;;;18.40;62.50;;;;;;5052901;28;1683;-68
2021/05/10 02:58:35;;;;;;;;;;;18.40;62.50;;;;;;5035486;28;1721;-68
2021/05/10 03:01:00;;;;;;;;;;;18.40;62.50;;;;;;5035342;28;1599;-69
2021/05/10 03:03:26;;;;;;;;;;;18.40;62.50;;;;;;5053395;28;1369;-69
2021/05/10 03:05:52;;;;;;;;;;;18.40;62.50;;;;;;5052653;28;1679;-68
2021/05/10 03:08:18;;;;;;;;;;;18.40;62.50;;;;;;5053266;28;1894;-68
2021/05/10 03:10:43;;;;;;;;;;;18.40;62.50;;;;;;5053383;28;1726;-67
2021/05/10 03:13:08;;;;;;;;;;;18.40;62.50;;;;;;5035488;28;1403;-68
2021/05/10 03:15:34;;;;;;;;;;;18.40;62.50;;;;;;5038875;28;1386;-68
2021/05/10 03:17:59;;;;;;;;;;;18.40;62.50;;;;;;5053113;28;1692;-68
2021/05/10 03:20:25;;;;;;;;;;;18.40;62.50;;;;;;5052894;28;1700;-68
2021/05/10 03:22:53;;;;;;;;;;;18.50;62.60;;;;;;5053140;28;1597;-68
2021/05/10 03:25:19;;;;;;;;;;;18.40;62.50;;;;;;5052692;28;1646;-69
2021/05/10 03:27:44;;;;;;;;;;;18.40;62.50;;;;;;5053359;28;1914;-69
2021/05/10 03:30:17;;;;;;;;;;;18.40;62.50;;;;;;5035006;28;1669;-67
2021/05/10 03:32:43;;;;;;;;;;;18.50;62.60;;;;;;5035247;28;1592;-67
2021/05/10 03:35:09;;;;;;;;;;;18.40;62.50;;;;;;5034722;28;1589;-68
2021/05/10 03:37:34;;;;;;;;;;;18.40;62.50;;;;;;5035071;28;1680;-67
2021/05/10 03:40:00;;;;;;;;;;;18.40;62.50;;;;;;5035007;28;1609;-67
2021/05/10 03:42:25;;;;;;;;;;;18.40;62.50;;;;;;5035219;28;1466;-67
2021/05/10 03:44:51;;;;;;;;;;;18.40;62.50;;;;;;5034778;28;1487;-68
2021/05/10 03:47:17;;;;;;;;;;;18.40;62.40;;;;;;5034809;28;1624;-68
2021/05/10 03:49:42;;;;;;;;;;;18.40;62.40;;;;;;5052673;28;1902;-68
2021/05/10 03:52:08;;;;;;;;;;;18.40;62.40;;;;;;5052709;28;1642;-68
2021/05/10 03:54:33;;;;;;;;;;;18.50;62.40;;;;;;5052655;28;1627;-68
2021/05/10 03:56:59;;;;;;;;;;;18.50;62.40;;;;;;5052412;28;1368;-68
2021/05/10 03:59:25;;;;;;;;;;;18.50;62.40;;;;;;5052535;28;1440;-68
2021/05/10 04:01:50;;;;;;;;;;;18.50;62.40;;;;;;5051619;28;1407;-68
2021/05/10 04:04:25;;;;;;;;;;;18.50;62.40;;;;;;5056717;28;1605;-70
2021/05/10 04:07:07;;;;;;;;;;;18.50;62.30;;;;;;5056740;28;1364;-70
2021/05/10 04:14:48;;;;;;;;;;;18.50;62.30;;;;;;5030441;28;1439;-69
2021/05/10 04:17:14;;;;;;;;;;;18.50;62.20;;;;;;5053736;28;1235;-69
2021/05/10 04:19:39;;;;;;;;;;;18.50;62.20;;;;;;5056334;28;1248;-68
2021/05/10 04:22:05;;;;;;;;;;;18.50;62.20;;;;;;5056350;28;996;-70
2021/05/10 04:24:30;;;;;;;;;;;18.50;62.20;;;;;;5038427;28;1275;-71
2021/05/10 04:26:56;;;;;;;;;;;18.50;62.20;;;;;;5056149;28;1412;-70
2021/05/10 04:29:21;;;;;;;;;;;18.50;62.20;;;;;;5056314;28;1965;-71
2021/05/10 04:31:47;;;;;;;;;;;18.50;62.20;;;;;;5056411;28;1552;-71
2021/05/10 04:34:12;;;;;;;;;;;18.50;62.10;;;;;;5038339;28;1276;-70
2021/05/10 04:36:38;;;;;;;;;;;18.50;62.20;;;;;;5038196;28;1605;-70
2021/05/10 04:39:03;;;;;;;;;;;18.50;62.10;;;;;;5038138;28;1407;-70
2021/05/10 04:41:28;;;;;;;;;;;18.50;62.10;;;;;;5056099;28;1423;-70
2021/05/10 04:43:54;;;;;;;;;;;18.50;62.10;;;;;;5037837;28;1616;-69
2021/05/10 04:46:19;;;;;;;;;;;18.50;62.10;;;;;;5055681;28;1609;-68
2021/05/10 04:48:45;;;;;;;;;;;18.50;62.10;;;;;;5055675;28;1890;-68
2021/05/10 04:51:10;;;;;;;;;;;18.50;62.10;;;;;;5055731;28;1572;-68
2021/05/10 04:53:39;;;;;;;;;;;18.60;62.10;;;;;;5038169;28;883;-69
2021/05/10 04:56:04;;;;;;;;;;;18.50;62.10;;;;;;5055106;28;1359;-68
2021/05/10 04:58:29;;;;;;;;;;;18.60;62.10;;;;;;5055880;28;1575;-69
2021/05/10 05:00:55;;;;;;;;;;;18.60;62.10;;;;;;5055597;28;1637;-68
2021/05/10 05:03:20;;;;;;;;;;;18.50;62.10;;;;;;5055923;28;1454;-69
2021/05/10 05:05:46;;;;;;;;;;;18.60;62.80;;;;;;5055225;28;1514;-68
2021/05/10 05:08:11;;;;;;;;;;;18.60;62.00;;;;;;5055478;28;1886;-68
2021/05/10 05:10:37;;;;;;;;;;;18.60;62.00;;;;;;5055360;28;1633;-68
2021/05/10 05:13:02;;;;;;;;;;;18.50;62.00;;;;;;5054397;28;883;-68
2021/05/10 05:15:27;;;;;;;;;;;18.60;62.00;;;;;;5037114;28;1683;-70
2021/05/10 05:17:53;;;;;;;;;;;18.60;62.00;;;;;;5055506;28;1657;-71
2021/05/10 05:20:18;;;;;;;;;;;18.60;62.00;;;;;;5055156;28;1356;-70
2021/05/10 05:22:44;;;;;;;;;;;18.60;62.00;;;;;;5055340;28;800;-70
2021/05/10 05:25:10;;;;;;;;;;;18.60;62.00;;;;;;5037207;28;1303;-70
2021/05/10 05:27:35;;;;;;;;;;;18.60;62.00;;;;;;5037288;28;1371;-72
2021/05/10 05:30:01;;;;;;;;;;;18.60;62.00;;;;;;5054848;28;1985;-71
2021/05/10 05:32:28;;;;;;;;;;;18.60;62.00;;;;;;5055290;28;1384;-71
2021/05/10 05:34:53;;;;;;;;;;;18.60;62.00;;;;;;5054934;28;1380;-70
2021/05/10 05:37:19;;;;;;;;;;;18.60;62.00;;;;;;5054775;28;859;-71
2021/05/10 05:39:44;;;;;;;;;;;18.60;62.00;;;;;;5020422;28;1621;-70
2021/05/10 05:42:10;;;;;;;;;;;18.60;62.00;;;;;;5036973;28;1670;-69
2021/05/10 05:44:37;;;;;;;;;;;18.60;62.00;;;;;;5037059;28;1504;-69
2021/05/10 05:47:03;;;;;;;;;;;18.60;62.00;;;;;;5054498;28;1255;-69
2021/05/10 05:49:30;;;;;;;;;;;18.60;62.00;;;;;;5054499;28;1886;-69
2021/05/10 05:51:56;;;;;;;;;;;18.60;62.00;;;;;;5037173;28;1350;-69
2021/05/10 05:54:21;;;;;;;;;;;18.60;62.00;;;;;;5036453;28;1359;-69
2021/05/10 05:56:47;;;;;;;;;;;18.60;62.00;;;;;;5054348;28;1079;-69
2021/05/10 05:59:12;;;;;;;;;;;18.60;62.00;;;;;;5054388;28;1313;-69
2021/05/10 06:01:38;;;;;;;;;;;18.60;62.00;;;;;;5036787;28;1657;-69
2021/05/10 06:04:03;;;;;;;;;;;18.60;62.00;;;;;;5054712;28;1479;-69
2021/05/10 06:06:29;;;;;;;;;;;18.60;62.00;;;;;;5054223;28;1373;-69
2021/05/10 06:08:55;;;;;;;;;;;18.60;62.00;;;;;;5054556;28;2219;-69
2021/05/10 06:11:21;;;;;;;;;;;18.60;62.00;;;;;;5054101;28;1382;-71
2021/05/10 06:13:46;;;;;;;;;;;18.60;62.00;;;;;;5054327;28;1416;-71
2021/05/10 06:16:12;;;;;;;;;;;18.60;61.90;;;;;;5053764;28;1600;-72
2021/05/10 06:18:38;;;;;;;;;;;18.60;62.80;;;;;;5044478;28;1915;-67
2021/05/10 06:21:03;;;;;;;;;;;18.60;62.00;;;;;;5025883;28;1569;-68
2021/05/10 06:23:29;;;;;;;;;;;18.60;62.00;;;;;;5035611;28;2220;-68
2021/05/10 06:25:54;;;;;;;;;;;18.60;61.90;;;;;;5036571;28;1612;-69
2021/05/10 06:28:20;;;;;;;;;;;18.60;62.00;;;;;;5053774;28;1898;-67
2021/05/10 06:30:45;;;;;;;;;;;18.60;61.90;;;;;;5052718;28;1424;-69
2021/05/10 06:33:11;;;;;;;;;;;18.60;61.90;;;;;;5053848;28;1448;-69
2021/05/10 06:35:36;;;;;;;;;;;18.60;62.00;;;;;;5053372;28;1403;-69
2021/05/10 06:38:02;;;;;;;;;;;18.60;62.00;;;;;;5053710;28;1461;-69
2021/05/10 06:40:28;;;;;;;;;;;18.60;61.90;;;;;;5035592;28;1362;-68
2021/05/10 06:42:54;;;;;;;;;;;18.60;62.70;;;;;;5053839;28;1667;-68
2021/05/10 06:45:19;;;;;;;;;;;18.60;61.90;;;;;;5053402;28;1317;-70
2021/05/10 06:47:45;;;;;;;;;;;18.60;62.00;;;;;;5053632;28;1420;-68
2021/05/10 06:50:11;;;;;;;;;;;18.60;62.70;;;;;;5035776;28;1957;-70
2021/05/10 06:52:36;;;;;;;;;;;18.60;61.90;;;;;;5053430;28;1485;-69
2021/05/10 06:55:05;;;;;;;;;;;18.60;61.90;;;;;;5053080;28;1879;-70
2021/05/10 06:57:30;;;;;;;;;;;18.60;61.90;;;;;;5035462;28;1666;-71
2021/05/10 06:59:56;;;;;;;;;;;18.60;61.90;;;;;;5053458;28;1060;-70
2021/05/10 07:02:23;;;;;;;;;;;18.60;61.90;;;;;;5053233;28;1342;-70
2021/05/10 07:04:49;;;;;;;;;;;18.60;61.90;;;;;;5053235;28;1267;-70
2021/05/10 07:07:14;;;;;;;;;;;18.60;61.90;;;;;;5052961;28;1585;-70
2021/05/10 07:09:39;;;;;;;;;;;18.60;61.90;;;;;;5053255;28;1937;-69
2021/05/10 07:12:05;;;;;;;;;;;18.60;61.90;;;;;;5053202;28;1605;-69
2021/05/10 07:17:00;;;;;;;;;;;18.60;61.90;;;;;;5049212;28;3127;-63
2021/05/10 07:19:26;;;;;;;;;;;18.60;61.90;;;;;;5053278;28;1385;-64
2021/05/10 07:21:52;;;;;;;;;;;18.60;61.90;;;;;;5052996;28;1382;-64
2021/05/10 07:24:18;;;;;;;;;;;18.60;61.90;;;;;;5051863;28;1675;-64
2021/05/10 07:26:43;;;;;;;;;;;18.60;61.90;;;;;;5052524;28;1473;-65
2021/05/10 07:29:09;;;;;;;;;;;18.60;61.90;;;;;;5052942;28;1898;-64
2021/05/10 07:31:34;;;;;;;;;;;18.60;62.70;;;;;;5052935;28;1648;-65
2021/05/10 07:34:00;;;;;;;;;;;18.60;62.00;;;;;;5044343;28;1433;-65
2021/05/10 07:36:25;;;;;;;;;;;18.60;62.00;;;;;;5042862;28;1397;-65
2021/05/10 07:38:50;;;;;;;;;;;18.60;62.00;;;;;;5032941;28;1459;-64
2021/05/10 07:41:16;;;;;;;;;;;18.60;62.00;;;;;;5032824;28;1408;-65
2021/05/10 07:43:41;;;;;;;;;;;18.60;62.00;;;;;;5032954;28;1381;-65
2021/05/10 07:46:07;;;;;;;;;;;18.60;62.00;;;;;;5032576;28;1474;-65
2021/05/10 07:48:33;;;;;;;;;;;18.60;62.00;;;;;;5040923;28;1955;-65
2021/05/10 07:50:58;;;;;;;;;;;18.60;62.00;;;;;;5033714;28;1426;-65
2021/05/10 07:53:24;;;;;;;;;;;18.60;62.00;;;;;;5023070;28;1290;-65
2021/05/10 07:55:50;;;;;;;;;;;18.60;62.00;;;;;;5051083;28;1346;-65
2021/05/10 07:58:21;;;;;;;;;;;18.60;62.00;;;;;;5040570;28;1214;-65
2021/05/10 08:00:48;;;;;;;;;;;18.60;62.00;;;;;;5050624;28;1639;-65
2021/05/10 08:03:16;;;;;;;;;;;18.60;62.00;;;;;;5032837;28;1379;-65
2021/05/10 08:05:43;;;;;;;;;;;18.60;62.00;;;;;;5032162;28;1678;-65
2021/05/10 08:08:09;;;;;;;;;;;18.60;62.10;;;;;;5032665;28;1894;-65
2021/05/10 08:10:34;;;;;;;;;;;18.60;62.00;;;;;;5014912;28;1746;-65
2021/05/10 08:12:59;;;;;;;;;;;18.60;62.00;;;;;;5024288;28;2245;-65
2021/05/10 08:15:25;;;;;;;;;;;18.60;62.10;;;;;;5048967;28;1511;-65
2021/05/10 08:17:51;;;;;;;;;;;18.60;62.10;;;;;;5030795;28;1659;-65
2021/05/10 08:20:16;;;;;;;;;;;18.60;62.10;;;;;;5032791;28;1474;-65
2021/05/10 08:22:42;;;;;;;;;;;18.60;62.10;;;;;;5051115;28;1251;-65
2021/05/10 08:25:09;;;;;;;;;;;18.60;62.10;;;;;;5049148;28;1404;-66
2021/05/10 08:27:35;;;;;;;;;;;18.60;62.10;;;;;;5049881;28;1246;-64
2021/05/10 08:30:01;;;;;;;;;;;18.60;62.10;;;;;;5031289;28;1914;-66
2021/05/10 08:32:26;;;;;;;;;;;18.60;62.10;;;;;;5051217;28;1416;-65
2021/05/10 08:34:52;;;;;;;;;;;18.60;62.10;;;;;;5049297;28;1472;-66
2021/05/10 08:37:20;;;;;;;;;;;18.60;62.20;;;;;;5049468;28;1369;-66
2021/05/10 08:39:45;;;;;;;;;;;18.60;62.20;;;;;;5048491;28;1522;-66
2021/05/10 08:42:11;;;;;;;;;;;18.60;62.20;;;;;;5042606;28;1421;-65
2021/05/10 08:44:36;;;;;;;;;;;18.60;62.10;;;;;;5031908;28;1563;-66
2021/05/10 08:47:02;;;;;;;;;;;18.60;62.20;;;;;;5017980;28;2005;-66
2021/05/10 08:49:27;;;;;;;;;;;18.60;62.20;;;;;;5049907;28;1949;-65
2021/05/10 08:51:53;;;;;;;;;;;18.60;62.20;;;;;;5045265;28;1641;-65
2021/05/10 08:54:18;;;;;;;;;;;18.60;62.20;;;;;;5035756;28;1623;-64
2021/05/10 08:56:44;;;;;;;;;;;18.60;62.20;;;;;;5035171;28;1306;-65
2021/05/10 08:59:10;;;;;;;;;;;18.60;62.20;;;;;;5035527;28;1646;-66
2021/05/10 09:01:48;;;;;;;;;;;18.60;62.20;;;;;;5035452;28;1665;-65
2021/05/10 09:04:14;;;;;;;;;;;18.60;62.20;;;;;;5034846;28;1629;-64
2021/05/10 09:06:39;;;;;;;;;;;18.60;62.20;;;;;;5017216;28;1412;-64
2021/05/10 09:09:07;;;;;;;;;;;18.60;62.20;;;;;;5035397;28;1898;-64
2021/05/10 09:11:33;;;;;;;;;;;18.60;62.20;;;;;;5035478;28;1423;-64
2021/05/10 09:13:59;;;;;;;;;;;18.60;62.20;;;;;;5039439;28;1671;-64
2021/05/10 09:16:25;;;;;;;;;;;18.60;62.30;;;;;;5037210;28;1362;-64
2021/05/10 09:18:51;;;;;;;;;;;18.60;62.20;;;;;;5037490;28;1312;-64
2021/05/10 09:21:17;;;;;;;;;;;18.60;62.20;;;;;;5054669;28;1382;-65
2021/05/10 09:23:42;;;;;;;;;;;18.60;62.30;;;;;;5037927;28;1514;-64
2021/05/10 09:26:08;;;;;;;;;;;18.60;62.30;;;;;;5034974;28;1339;-66
2021/05/10 09:28:37;;;;;;;;;;;18.60;62.30;;;;;;5036193;28;1906;-68
2021/05/10 09:31:06;;;;;;;;;;;18.60;62.30;;;;;;5033701;28;1368;-65
2021/05/10 09:33:31;;;;;;;;;;;18.60;62.30;;;;;;5035114;28;1194;-63
2021/05/10 09:35:58;;;;;;;;;;;18.60;62.30;;;;;;5017000;28;1520;-63
2021/05/10 09:38:24;;;;;;;;;;;18.60;62.30;;;;;;5034880;28;1634;-63
2021/05/10 09:40:53;;;;;;;;;;;18.60;62.30;;;;;;5034770;28;1390;-63
2021/05/10 09:43:22;;;;;;;;;;;18.60;62.30;;;;;;5017088;28;1594;-62
2021/05/10 09:45:48;;;;;;;;;;;18.60;62.30;;;;;;5034427;28;1645;-63
2021/05/10 09:48:15;;;;;;;;;;;18.60;62.30;;;;;;5017264;28;1961;-63
2021/05/10 09:50:47;;;;;;;;;;;18.60;62.30;;;;;;5017133;28;1429;-63
2021/05/10 09:53:15;;;;;;;;;;;18.60;62.40;;;;;;5041704;28;1690;-63
2021/05/10 09:55:48;;;;;;;;;;;18.50;62.30;;;;;;5049877;28;1942;-63
2021/05/10 09:58:14;;;;;;;;;;;18.60;62.30;;;;;;5027858;28;1515;-65
2021/05/10 10:00:40;;;;;;;;;;;18.60;62.40;;;;;;5020357;28;1612;-66
2021/05/10 10:03:26;;;;;;;;;;;18.60;62.40;;;;;;5027365;28;1420;-66
2021/05/10 10:05:52;;;;;;;;;;;18.60;62.40;;;;;;5017880;28;1636;-65
2021/05/10 10:08:17;;;;;;;;;;;18.60;62.40;;;;;;5015125;28;1953;-66
2021/05/10 10:10:43;;;;;;;;;;;18.60;62.40;;;;;;5033220;28;1706;-66
2021/05/10 10:13:08;;;;;;;;;;;18.60;62.40;;;;;;5018515;28;1658;-66
2021/05/10 10:15:33;;;;;;;;;;;18.60;62.40;;;;;;5048962;28;1373;-66
2021/05/10 10:18:01;;;;;;;;;;;18.60;62.40;;;;;;5033592;28;1531;-66
2021/05/10 10:20:26;;;;;;;;;;;18.60;62.40;;;;;;5023805;28;1585;-66
2021/05/10 10:22:51;;;;;;;;;;;18.60;62.40;;;;;;5042552;28;1552;-66
2021/05/10 10:25:17;;;;;;;;;;;18.60;62.40;;;;;;5032725;28;1556;-65
2021/05/10 10:27:42;;;;;;;;;;;18.60;62.40;;;;;;5015620;28;1385;-66
2021/05/10 10:30:08;;;;;;;;;;;18.60;62.40;;;;;;4999024;28;1956;-66
2021/05/10 10:32:33;;;;;;;;;;;18.60;62.40;;;;;;5032544;28;2024;-66
2021/05/10 10:34:59;;;;;;;;;;;18.60;62.40;;;;;;5047455;28;1923;-65
2021/05/10 10:37:24;;;;;;;;;;;18.60;62.40;;;;;;5030464;28;1384;-66
2021/05/10 10:39:51;;;;;;;;;;;18.60;62.40;;;;;;5035817;28;1543;-66
2021/05/10 10:42:25;;;;;;;;;;;18.60;62.50;;;;;;5022807;28;2235;-66
2021/05/10 10:44:53;;;;;;;;;;;18.60;62.40;;;;;;5048261;28;1633;-66
2021/05/10 10:47:43;;;;;;;;;;;18.60;62.40;;;;;;5050727;28;1362;-66
2021/05/10 10:50:08;;;;;;;;;;;18.60;62.40;;;;;;5049597;28;1898;-65
2021/05/10 10:52:34;;;;;;;;;;;18.60;62.40;;;;;;5037248;28;1626;-64
2021/05/10 10:55:11;;;;;;;;;;;18.60;62.40;;;;;;5014573;28;1584;-65
2021/05/10 10:57:37;;;;;;;;;;;18.60;62.40;;;;;;5032427;28;1636;-66
2021/05/10 11:00:05;;;;;;;;;;;18.60;62.40;;;;;;5032539;28;1102;-66
2021/05/10 11:02:38;;;;;;;;;;;18.60;62.40;;;;;;5032421;28;1646;-64
2021/05/10 11:05:14;;;;;;;;;;;18.60;62.40;;;;;;5032192;28;1645;-65
2021/05/10 11:08:04;;;;;;;;;;;18.60;62.40;;;;;;5014765;28;1599;-65
2021/05/10 11:10:51;;;;;;;;;;;18.60;62.40;;;;;;5031931;28;1622;-64
2021/05/10 11:13:25;;;;;;;;;;;18.50;62.40;;;;;;5014898;28;1601;-65
2021/05/10 11:15:52;;;;;;;;;;;18.60;62.50;;;;;;5040326;28;1795;-64
2021/05/10 11:18:37;;;;;;;;;;;18.60;62.50;;;;;;5019209;28;1173;-64
2021/05/10 11:21:06;;;;;;;;;;;18.60;62.50;;;;;;5042248;28;1168;-64
2021/05/10 11:23:32;;;;;;;;;;;18.50;62.40;;;;;;5038987;28;1099;-64
2021/05/10 11:26:01;;;;;;;;;;;18.60;62.40;;;;;;5038696;28;1375;-64
2021/05/10 11:28:27;;;;;;;;;;;18.60;62.60;;;;;;5036718;28;1910;-65
2021/05/10 11:31:05;;;;;;;;;;;18.60;62.50;;;;;;5039081;28;1167;-66
2021/05/10 11:33:49;;;;;;;;;;;18.60;62.50;;;;;;5036548;28;1331;-65
2021/05/10 11:36:21;;;;;;;;;;;18.60;62.50;;;;;;5037576;28;1323;-67
2021/05/10 11:39:06;;;;;;;;;;;18.60;63.20;;;;;;5022558;28;1412;-65
2021/05/10 11:41:39;;;;;;;;;;;18.60;62.50;;;;;;5037980;28;1399;-65
2021/05/10 11:44:05;;;;;;;;;;;18.50;62.50;;;;;;5018951;28;1325;-65
2021/05/10 11:46:32;;;;;;;;;;;18.60;62.50;;;;;;5032375;28;1308;-65
2021/05/10 11:48:57;;;;;;;;;;;18.50;62.40;;;;;;5040659;28;1961;-65
2021/05/10 11:51:23;;;;;;;;;;;18.60;62.50;;;;;;5044123;28;1459;-66
2021/05/10 11:53:55;;;;;;;;;;;18.50;62.50;;;;;;5031974;28;1444;-64
2021/05/10 11:56:27;;;;;;;;;;;18.60;62.50;;;;;;5013711;28;1596;-66
2021/05/10 11:59:11;;;;;;;;;;;18.60;62.50;;;;;;5013969;28;1408;-64
2021/05/10 12:01:38;;;;;;;;;;;18.50;62.50;;;;;;5036671;28;1870;-65
2021/05/10 12:04:22;;;;;;;;;;;18.50;62.50;;;;;;5028505;28;1483;-65
2021/05/10 12:06:48;;;;;;;;;;;18.60;62.60;;;;;;5037208;28;1590;-66
2021/05/10 12:09:32;;;;;;;;;;;18.60;62.50;;;;;;5030980;28;1910;-67
2021/05/10 12:12:01;;;;;;;;;;;18.50;62.50;;;;;;5036931;28;1439;-65
2021/05/10 12:14:27;;;;;;;;;;;18.60;62.50;;;;;;5038981;28;1669;-64
2021/05/10 12:17:08;;;;;;;;;;;18.60;62.50;;;;;;5015294;28;1600;-65
2021/05/10 12:19:50;;;;;;;;;;;18.60;62.60;;;;;;5032661;28;1435;-65
2021/05/10 12:22:15;;;;;;;;;;;18.60;62.60;;;;;;5045647;28;1538;-64
2021/05/10 12:24:56;;;;;;;;;;;18.60;62.60;;;;;;5034327;28;1360;-64
2021/05/10 12:27:21;;;;;;;;;;;18.50;62.50;;;;;;5041950;28;1456;-64
2021/05/10 12:29:47;;;;;;;;;;;18.60;62.60;;;;;;5037175;28;1906;-65
2021/05/10 12:32:12;;;;;;;;;;;18.60;62.50;;;;;;5054716;28;968;-65
2021/05/10 12:34:38;;;;;;;;;;;18.60;62.60;;;;;;5036850;28;1658;-65
2021/05/10 12:37:03;;;;;;;;;;;18.60;62.60;;;;;;5036634;28;1634;-65
2021/05/10 12:39:28;;;;;;;;;;;18.50;62.50;;;;;;5036770;28;1585;-65
2021/05/10 12:42:10;;;;;;;;;;;18.60;62.60;;;;;;5054679;28;1687;-65
2021/05/10 12:44:36;;;;;;;;;;;18.60;62.50;;;;;;5054650;28;1696;-65
2021/05/10 12:47:01;;;;;;;;;;;18.60;62.50;;;;;;5053936;28;1698;-65
2021/05/10 12:49:26;;;;;;;;;;;18.50;62.50;;;;;;5054351;28;1897;-65
2021/05/10 12:51:55;;;;;;;;;;;18.60;62.60;;;;;;5046192;28;1550;-63
2021/05/10 12:54:21;;;;;;;;;;;18.50;62.50;;;;;;5035036;28;1377;-63
2021/05/10 12:56:46;;;;;;;;;;;18.50;62.60;;;;;;5034502;28;1560;-64
2021/05/10 12:59:12;;;;;;;;;;;18.60;62.60;;;;;;5034681;28;1697;-65
2021/05/10 13:01:37;;;;;;;;;;;18.60;62.60;;;;;;5034390;28;1739;-63
2021/05/10 13:04:06;;;;;;;;;;;18.60;62.60;;;;;;5016908;28;1113;-63
2021/05/10 13:06:38;;;;;;;;;;;18.60;62.60;;;;;;5034270;28;1670;-63
2021/05/10 13:09:04;;;;;;;;;;;18.60;62.60;;;;;;5034442;28;1959;-63
2021/05/10 13:11:34;;;;;;;;;;;18.60;62.60;;;;;;5016753;28;1099;-65
2021/05/10 13:14:03;;;;;;;;;;;18.60;62.60;;;;;;5043672;28;1628;-65
2021/05/10 13:27:22;;;;;;;;;;;18.50;62.50;;;;;;5073666;28;1431;-67
2021/05/10 13:32:51;;;;;;;;;;;18.60;62.60;;;;;;5073261;28;1645;-67
2021/05/10 13:35:37;;;;;;;;;;;18.60;62.60;;;;;;5071431;28;1311;-67
2021/05/10 13:38:03;;;;;;;;;;;18.60;62.60;;;;;;5072029;28;1387;-67
2021/05/10 13:40:29;;;;;;;;;;;18.60;62.70;;;;;;5073949;28;1389;-67
2021/05/10 13:42:59;;;;;;;;;;;18.60;62.70;;;;;;5072606;28;1657;-67
2021/05/10 13:45:25;;;;;;;;;;;18.60;62.60;;;;;;5072006;28;1642;-66
2021/05/10 13:47:50;;;;;;;;;;;18.60;62.60;;;;;;5073397;28;1400;-66
2021/05/10 13:50:16;;;;;;;;;;;18.60;62.70;;;;;;5065236;28;1889;-67
2021/05/10 13:52:41;;;;;;;;;;;18.60;62.70;;;;;;5053268;28;1246;-67
2021/05/10 13:55:06;;;;;;;;;;;18.60;62.80;;;;;;5051272;28;1443;-67
2021/05/10 13:57:32;;;;;;;;;;;18.60;62.70;;;;;;5052232;28;1411;-67
2021/05/10 13:59:57;;;;;;;;;;;18.60;62.70;;;;;;5053226;28;1063;-66
2021/05/10 14:02:23;;;;;;;;;;;18.60;62.70;;;;;;5053242;28;1048;-67
2021/05/10 14:04:48;;;;;;;;;;;18.60;62.70;;;;;;5053423;28;1055;-67
2021/05/10 14:07:14;;;;;;;;;;;18.60;62.70;;;;;;5052802;28;1260;-67
2021/05/10 14:09:39;;;;;;;;;;;18.60;62.70;;;;;;5053187;28;1922;-67
2021/05/10 14:12:05;;;;;;;;;;;18.60;62.70;;;;;;5052973;28;1047;-67
2021/05/10 14:14:30;;;;;;;;;;;18.60;62.70;;;;;;5052941;28;1059;-67
2021/05/10 14:16:56;;;;;;;;;;;18.60;62.60;;;;;;5052372;28;1279;-67
2021/05/10 14:19:22;;;;;;;;;;;18.60;62.70;;;;;;5052015;28;1139;-67
2021/05/10 14:22:01;;;;;;;;;;;18.60;62.70;;;;;;5052829;28;1225;-67
2021/05/10 14:24:30;;;;;;;;;;;18.60;62.70;;;;;;5051894;28;1064;-67
2021/05/10 14:26:55;;;;;;;;;;;18.60;62.70;;;;;;5052436;28;1280;-67
2021/05/10 14:29:21;;;;;;;;;;;18.60;62.70;;;;;;5051779;28;1906;-67
2021/05/10 14:31:46;;;;;;;;;;;18.60;62.70;;;;;;5051460;28;1095;-67
2021/05/10 14:34:12;;;;;;;;;;;18.60;62.70;;;;;;5052776;28;1088;-67
2021/05/10 14:36:37;;;;;;;;;;;18.60;62.70;;;;;;5052465;28;1212;-67
2021/05/10 14:39:03;;;;;;;;;;;18.60;62.70;;;;;;5051333;28;1100;-67
2021/05/10 14:41:29;;;;;;;;;;;18.60;62.70;;;;;;5051317;28;1117;-66
2021/05/10 14:43:54;;;;;;;;;;;18.60;62.70;;;;;;5053790;28;1293;-68
2021/05/10 14:46:20;;;;;;;;;;;18.60;62.70;;;;;;5061217;28;1363;-67
2021/05/10 14:48:45;;;;;;;;;;;18.60;62.70;;;;;;5057964;28;1902;-67
2021/05/10 14:51:11;;;;;;;;;;;18.60;62.70;;;;;;5063621;28;1206;-69
2021/05/10 14:53:36;;;;;;;;;;;18.60;62.70;;;;;;5061886;28;1151;-68